Terminal Aerodrome Forecast
Issued by NWS Knoxville/Tri Cities, TN

Home | Current Version | Previous Version | Text Only | Print | Product List | Glossary On
Versions: 1 2 3 4 5 6 7 8 9 10 11 12 13 14
000
FTUS44 KMRX 270536
TAFTRI
TAF
KTRI 270536Z 2706/2806 00000KT P6SM FEW040 SCT200
     FM270800 00000KT 5SM BR FEW040 SCT250
      TEMPO 2710/2713 2SM BR SCT002
     FM271300 VRB04KT P6SM SCT050 BKN200
     FM271900 19006KT P6SM VCTS SCT050CB BKN200
     FM280000 VRB03KT P6SM SCT070 BKN250=

USA.gov is the U.S. government's official web portal to all federal, state and local government web resources and services.